Time;durP1;ratioP1;P1;durP2;ratioP2;P2;SDS_P1;SDS_P2;PMS_P1;PMS_P2;Temp;Humidity;BMP_temperature;BMP_pressure;BME280_temperature;BME280_humidity;BME280_pressure;Samples;Min_cycle;Max_cycle;Signal;HPM_P1;HPM_P2
2022/08/22 00:01:09;;;;;;;37.72;19.35;;;;;;;31.89;65.20;97426.50;5024501;28;20049;-72
2022/08/22 00:04:16;;;;;;;36.83;18.08;;;;;;;31.68;66.39;97421.63;5008109;28;20057;-73
2022/08/22 00:07:19;;;;;;;33.58;17.20;;;;;;;31.76;66.05;97426.03;5004528;28;20478;-72
2022/08/22 00:10:26;;;;;;;29.80;17.15;;;;;;;31.66;65.36;97425.94;5020542;28;20041;-72
2022/08/22 00:13:28;;;;;;;29.92;17.60;;;;;;;31.68;66.28;97438.28;5004019;28;20046;-71
2022/08/22 00:16:45;;;;;;;42.25;19.98;;;;;;;31.75;65.46;97432.75;5007955;28;20085;-73
2022/08/22 00:19:40;;;;;;;33.70;18.13;;;;;;;31.58;66.21;97423.13;5022940;28;20049;-72
2022/08/22 00:22:35;;;;;;;30.30;19.33;;;;;;;31.47;67.15;97427.00;5011581;28;20061;-72
2022/08/22 00:25:35;;;;;;;43.85;18.98;;;;;;;31.37;67.79;97434.81;5019724;28;20896;-72
2022/08/22 00:28:49;;;;;;;40.92;22.88;;;;;;;31.47;67.54;97435.31;5008203;28;20828;-72
2022/08/22 00:31:38;;;;;;;38.58;21.85;;;;;;;31.36;68.13;97444.31;5004040;28;20049;-72
2022/08/22 00:34:52;;;;;;;51.45;25.13;;;;;;;31.37;67.86;97437.56;5030816;28;20774;-73
2022/08/22 00:37:34;;;;;;;53.67;26.88;;;;;;;31.42;68.17;97448.31;5012146;28;20042;-72
2022/08/22 00:40:46;;;;;;;54.00;28.15;;;;;;;31.38;67.61;97444.72;5015735;28;20056;-72
2022/08/22 00:44:03;;;;;;;62.97;29.77;;;;;;;31.53;67.34;97459.53;4984169;28;20041;-72
2022/08/22 00:46:58;;;;;;;55.08;29.77;;;;;;;31.39;68.46;97443.56;5006722;28;20069;-72
2022/08/22 00:50:06;;;;;;;56.85;29.00;;;;;;;31.35;68.19;97461.31;4995391;28;20480;-72
2022/08/22 00:53:24;;;;;;;54.10;28.17;;;;;;;31.38;68.21;97458.59;5007880;28;20041;-72
2022/08/22 00:56:41;;;;;;;68.07;31.13;;;;;;;31.46;67.90;97469.75;5022748;28;20053;-73
2022/08/22 00:59:36;;;;;;;43.42;27.48;;;;;;;31.37;68.81;97468.06;5001180;28;20107;-73
2022/08/22 01:02:36;;;;;;;52.20;27.65;;;;;;;31.40;68.51;97470.09;5006378;28;20477;-73
2022/08/22 01:06:04;;;;;;;55.55;28.50;;;;;;;31.43;68.92;97476.84;5008108;28;20041;-72
2022/08/22 01:09:28;;;;;;;53.20;27.88;;;;;;;31.49;69.06;97480.09;4973842;28;20049;-73
2022/08/22 01:12:49;;;;;;;63.03;26.85;;;;;;;31.51;68.53;97474.94;5003120;28;20057;-71
2022/08/22 01:15:30;;;;;;;51.88;27.48;;;;;;;31.55;68.58;97478.56;5017273;28;20041;-71
2022/08/22 01:18:49;;;;;;;53.25;26.30;;;;;;;31.63;68.52;97480.22;5003379;28;20085;-71
2022/08/22 01:21:59;;;;;;;51.08;25.00;;;;;;;31.68;68.24;97481.81;5001491;28;20140;-72
2022/08/22 01:25:22;;;;;;;46.25;24.50;;;;;;;31.65;67.92;97486.19;5003005;28;20058;-72
2022/08/22 01:28:25;;;;;;;49.78;22.48;;;;;;;31.75;66.92;97492.97;5007392;28;20069;-74
2022/08/22 01:31:37;;;;;;;49.63;22.52;;;;;;;31.82;66.97;97498.59;5009115;28;20037;-72
2022/08/22 01:34:50;;;;;;;54.55;21.52;;;;;;;31.82;66.54;97506.91;5015981;28;20068;-73
2022/08/22 01:37:45;;;;;;;45.50;22.85;;;;;;;31.90;68.25;97499.44;5012271;28;20517;-72
2022/08/22 01:40:42;;;;;;;48.42;21.77;;;;;;;31.95;66.73;97501.88;5003306;28;20465;-73
2022/08/22 01:43:56;;;;;;;43.28;19.50;;;;;;;31.95;65.75;97502.66;5005066;28;20049;-71
2022/08/22 01:54:40;;;;;;;33.53;16.75;;;;;;;32.31;65.79;97513.19;4871915;29;20500;-72
2022/08/22 01:57:18;;;;;;;34.95;15.68;;;;;;;32.18;65.18;97507.19;4874148;29;20128;-73
2022/08/22 02:00:16;;;;;;;31.42;15.93;;;;;;;32.31;66.24;97510.44;4872979;29;20148;-72
2022/08/22 02:04:04;;;;;;;31.45;14.90;;;;;;;32.46;65.47;97514.09;4872442;29;20450;-73
2022/08/22 02:07:40;;;;;;;34.47;13.40;;;;;;;32.27;63.87;97518.72;4866935;29;20061;-73
2022/08/22 02:10:37;;;;;;;35.63;13.23;;;;;;;32.39;64.54;97515.66;4870697;29;20088;-73
2022/08/22 02:14:06;;;;;;;31.15;13.93;;;;;;;32.41;64.43;97522.78;4871867;29;20156;-73
2022/08/22 02:17:12;;;;;;;32.85;13.82;;;;;;;32.54;63.76;97524.03;4868722;29;20045;-73
2022/08/22 02:20:16;;;;;;;28.17;12.18;;;;;;;32.77;62.16;97515.44;4875002;29;20061;-73
2022/08/22 02:23:36;;;;;;;31.02;11.85;;;;;;;33.39;59.79;97520.00;4874519;29;20069;-73
2022/08/22 02:26:24;;;;;;;26.35;13.77;;;;;;;33.48;59.12;97527.97;4874341;29;20057;-72
2022/08/22 02:29:22;;;;;;;37.47;10.63;;;;;;;33.86;59.27;97525.59;4875336;29;20044;-72
2022/08/22 02:32:36;;;;;;;27.65;12.07;;;;;;;33.97;58.51;97529.19;4855619;29;20583;-72
2022/08/22 02:35:41;;;;;;;;;;;;;;;34.01;59.83;97538.31;4842650;29;20058;-72
2022/08/22 02:38:45;;;;;;;30.70;11.38;;;;;;;33.99;58.12;97532.34;4855956;29;20138;-72
2022/08/22 02:41:48;;;;;;;24.73;10.73;;;;;;;33.34;58.89;97540.66;4855755;29;20054;-72
2022/08/22 02:44:44;;;;;;;26.45;9.07;;;;;;;33.59;58.34;97544.66;4856110;29;20101;-73
2022/08/22 02:47:41;;;;;;;34.08;10.80;;;;;;;33.90;58.06;97537.56;4844508;29;20289;-73
2022/08/22 02:50:52;;;;;;;29.40;12.83;;;;;;;33.97;58.61;97543.09;4876313;29;20056;-73
2022/08/22 02:54:01;;;;;;;26.95;11.07;;;;;;;34.33;59.32;97543.88;4910126;28;20287;-73
2022/08/22 02:57:23;;;;;;;26.80;10.82;;;;;;;34.25;58.01;97541.53;4907349;29;20473;-72
2022/08/22 03:00:16;;;;;;;23.23;10.70;;;;;;;34.26;56.95;97549.47;4893075;29;20472;-73
2022/08/22 03:03:23;;;;;;;32.53;10.70;;;;;;;34.19;58.55;97554.25;4892240;29;20743;-73
2022/08/22 03:06:13;;;;;;;30.38;11.05;;;;;;;33.44;58.71;97546.63;4893321;29;20132;-71
2022/08/22 03:09:46;;;;;;;26.38;12.75;;;;;;;34.02;57.73;97542.72;4892891;29;20480;-72
2022/08/22 03:12:53;;;;;;;28.75;11.32;;;;;;;34.30;57.66;97549.47;4892845;29;20048;-74
2022/08/22 03:15:38;;;;;;;25.08;10.52;;;;;;;34.41;58.46;97552.22;4892694;29;20059;-74
2022/08/22 03:18:38;;;;;;;27.48;11.60;;;;;;;34.40;57.27;97548.66;4887287;29;20201;-73
2022/08/22 03:21:52;;;;;;;27.02;10.80;;;;;;;34.45;57.18;97556.59;4892253;29;20057;-72
2022/08/22 03:24:31;;;;;;;30.73;11.60;;;;;;;34.29;58.70;97559.00;4891407;29;20157;-73
2022/08/22 03:27:31;;;;;;;31.02;11.98;;;;;;;34.26;57.08;97552.25;4892204;29;20695;-73
2022/08/22 03:30:43;;;;;;;30.98;10.32;;;;;;;34.57;56.07;97557.34;4877605;29;20044;-72
2022/08/22 03:33:32;;;;;;;28.80;11.23;;;;;;;34.73;56.64;97556.94;4897862;29;20120;-73
2022/08/22 03:36:21;;;;;;;27.50;10.73;;;;;;;34.99;55.76;97556.44;4892396;29;20304;-73
2022/08/22 03:39:18;;;;;;;27.35;9.45;;;;;;;34.57;54.87;97560.13;4892412;29;20476;-70
2022/08/22 03:42:21;;;;;;;27.48;9.95;;;;;;;34.82;55.42;97557.31;4891919;29;20056;-72
2022/08/22 03:45:47;;;;;;;27.20;9.52;;;;;;;35.03;54.97;97559.22;4872811;29;20090;-71
2022/08/22 03:48:52;;;;;;;32.20;10.18;;;;;;;35.22;54.30;97569.91;4856847;29;20063;-72
2022/08/22 03:52:12;;;;;;;23.00;10.48;;;;;;;35.02;53.10;97571.56;4877166;29;20137;-71
2022/08/22 03:55:20;;;;;;;25.00;9.95;;;;;;;35.18;53.54;97569.13;4873177;29;20128;-72
2022/08/22 03:58:45;;;;;;;23.73;8.23;;;;;;;35.06;52.95;97575.13;4887652;29;20037;-71
2022/08/22 04:02:00;;;;;;;27.60;9.02;;;;;;;35.43;53.09;97574.56;4892168;29;20059;-72
2022/08/22 04:05:14;;;;;;;18.48;7.60;;;;;;;35.44;56.08;97569.75;4891364;29;20049;-72
2022/08/22 04:08:17;;;;;;;23.02;7.97;;;;;;;35.54;53.11;97579.25;4892538;29;20049;-72
2022/08/22 04:11:25;;;;;;;24.02;8.77;;;;;;;35.59;50.81;97579.63;4875033;29;20089;-72
2022/08/22 04:14:23;;;;;;;21.02;7.80;;;;;;;35.73;50.00;97577.97;4891610;29;20044;-73
2022/08/22 04:17:32;;;;;;;19.35;9.23;;;;;;;35.85;51.21;97574.69;4891225;29;20592;-74
2022/08/22 04:20:51;;;;;;;19.83;8.25;;;;;;;35.78;49.65;97588.72;4891391;29;20452;-74
2022/08/22 04:23:58;;;;;;;27.27;7.60;;;;;;;35.71;49.59;97588.75;4872882;29;20462;-73
2022/08/22 04:26:55;;;;;;;24.35;7.28;;;;;;;36.22;47.79;97596.34;4888373;29;20044;-74
2022/08/22 04:29:51;;;;;;;26.17;7.70;;;;;;;36.48;49.87;97601.69;4899614;29;20835;-74
2022/08/22 04:32:52;;;;;;;17.85;8.55;;;;;;;36.84;48.84;97596.53;4893550;29;20045;-74
2022/08/22 04:36:01;;;;;;;30.10;8.48;;;;;;;36.92;47.27;97602.81;4896131;29;20044;-74
2022/08/22 04:38:57;;;;;;;19.35;7.53;;;;;;;37.36;46.09;97587.91;4889474;29;20057;-74
2022/08/22 04:41:55;;;;;;;24.90;8.48;;;;;;;37.30;45.52;97595.19;4889816;29;20051;-74
2022/08/22 04:45:22;;;;;;;21.92;8.95;;;;;;;37.64;47.15;97608.31;4891064;29;20057;-71
2022/08/22 04:48:14;;;;;;;19.33;7.32;;;;;;;37.93;47.21;97610.69;4890999;29;20064;-71
2022/08/22 04:51:25;;;;;;;26.92;9.10;;;;;;;38.03;44.84;97604.13;4890551;29;20116;-73
2022/08/22 04:55:14;;;;;;;24.38;7.90;;;;;;;38.04;45.04;97607.72;4894294;28;20036;-71
2022/08/22 04:58:32;;;;;;;19.00;7.55;;;;;;;37.74;44.20;97615.78;4836426;29;20124;-71
2022/08/22 05:01:32;;;;;;;19.90;8.30;;;;;;;38.02;45.04;97613.75;4890384;29;20148;-73
2022/08/22 05:04:31;;;;;;;22.88;8.63;;;;;;;38.76;45.50;97612.91;4890332;29;20052;-73
2022/08/22 05:07:28;;;;;;;26.27;7.72;;;;;;;38.42;44.18;97615.91;4905293;29;20055;-73
2022/08/22 05:10:41;;;;;;;20.20;7.82;;;;;;;38.06;45.11;97616.50;4909377;29;20052;-74
2022/08/22 05:13:32;;;;;;;;;;;;;;;38.56;43.50;97612.88;4898130;29;20048;-74
2022/08/22 05:16:19;;;;;;;19.58;6.97;;;;;;;38.89;45.40;97615.88;4909223;29;19933;-73
2022/08/22 05:19:20;;;;;;;20.52;6.07;;;;;;;38.66;42.21;97611.13;4909567;29;20048;-72
2022/08/22 05:22:35;;;;;;;23.65;5.70;;;;;;;38.68;41.38;97611.47;4882250;29;20063;-73
2022/08/22 05:25:37;;;;;;;16.30;5.60;;;;;;;39.22;44.07;97613.22;4857443;29;20063;-74
2022/08/22 05:28:33;;;;;;;23.10;4.57;;;;;;;38.56;41.15;97612.88;4884191;29;20091;-74
2022/08/22 05:31:36;;;;;;;11.45;5.35;;;;;;;38.68;41.00;97615.06;4871217;29;20049;-74
2022/08/22 05:34:27;;;;;;;13.75;4.82;;;;;;;38.53;40.87;97622.94;4873620;29;20057;-74
2022/08/22 05:37:21;;;;;;;15.82;5.53;;;;;;;39.16;39.98;97616.53;4871893;29;20105;-73
2022/08/22 05:40:06;;;;;;;28.40;5.28;;;;;;;38.45;38.04;97615.84;4874223;29;20091;-74
2022/08/22 05:42:57;;;;;;;14.90;5.38;;;;;;;38.36;40.86;97624.03;4873107;29;20048;-74
2022/08/22 05:45:50;;;;;;;25.58;5.78;;;;;;;38.56;44.13;97629.69;4871602;29;20141;-74
2022/08/22 05:48:50;;;;;;;21.55;6.07;;;;;;;38.70;40.75;97629.44;4875509;29;20052;-73
2022/08/22 05:51:56;;;;;;;22.77;7.72;;;;;;;38.46;43.38;97622.25;4889279;29;20048;-73
2022/08/22 05:55:05;;;;;;;28.40;6.78;;;;;;;38.10;42.42;97622.84;4907961;28;20060;-73
2022/08/22 05:58:14;;;;;;;17.83;6.07;;;;;;;38.52;41.30;97617.72;4895897;29;20052;-74
2022/08/22 06:01:05;;;;;;;25.52;6.05;;;;;;;38.58;42.82;97613.22;4890189;29;20060;-73
2022/08/22 06:04:09;;;;;;;20.88;6.25;;;;;;;39.32;41.93;97615.00;4890103;29;20058;-73
2022/08/22 06:07:28;;;;;;;22.17;6.85;;;;;;;39.06;43.32;97625.97;4889630;29;20083;-74
2022/08/22 06:10:24;;;;;;;23.83;6.68;;;;;;;38.75;42.81;97612.13;4889587;29;20048;-74
2022/08/22 06:13:06;;;;;;;23.45;5.93;;;;;;;39.20;39.79;97610.84;4889970;29;20048;-74
2022/08/22 06:16:20;;;;;;;25.85;6.35;;;;;;;39.22;39.37;97611.19;4889908;29;20072;-74
2022/08/22 06:19:04;;;;;;;20.92;5.97;;;;;;;38.94;41.02;97602.13;4889422;29;20044;-73
2022/08/22 06:22:07;;;;;;;19.52;6.88;;;;;;;39.07;39.55;97607.91;4889031;29;20055;-73
2022/08/22 06:24:49;;;;;;;17.52;5.88;;;;;;;39.02;39.09;97607.59;4889079;29;20551;-74
2022/08/22 06:27:39;;;;;;;25.67;6.10;;;;;;;39.02;39.78;97605.63;4888726;29;20512;-73
2022/08/22 06:30:22;;;;;;;16.50;6.30;;;;;;;39.40;40.24;97612.81;4889489;29;20067;-73
2022/08/22 06:33:18;;;;;;;16.30;5.60;;;;;;;39.59;38.74;97612.00;4888778;29;20040;-74
2022/08/22 06:39:34;;;;;;;25.80;6.43;;;;;;;38.20;40.46;97605.09;4888204;29;20063;-73
2022/08/22 06:42:13;;;;;;;18.15;6.25;;;;;;;39.07;37.75;97607.91;4888951;29;20808;-74
2022/08/22 06:45:09;;;;;;;18.40;5.68;;;;;;;38.84;37.37;97602.34;4889844;29;20064;-73
2022/08/22 06:48:18;;;;;;;24.52;6.30;;;;;;;39.25;41.87;97592.69;4889397;29;20135;-74
2022/08/22 06:51:09;;;;;;;24.80;5.75;;;;;;;39.26;39.84;97595.06;4888945;29;20049;-74
2022/08/22 06:54:08;;;;;;;22.75;7.70;;;;;;;39.31;39.01;97588.16;4886805;28;20049;-74
2022/08/22 06:57:05;;;;;;;17.77;7.00;;;;;;;39.77;37.81;97582.75;4870392;29;20125;-74
2022/08/22 06:59:42;;;;;;;23.30;7.97;;;;;;;39.72;41.45;97575.63;4870501;29;20041;-74
2022/08/22 07:02:38;;;;;;;22.30;8.38;;;;;;;39.35;39.40;97574.84;4869878;29;20041;-73
2022/08/22 07:05:27;;;;;;;24.42;8.98;;;;;;;39.32;41.92;97564.47;4873588;29;20085;-73
2022/08/22 07:08:28;;;;;;;23.33;8.57;;;;;;;39.40;39.65;97563.06;4873485;29;20140;-73
2022/08/22 07:11:20;;;;;;;24.05;9.13;;;;;;;39.72;38.89;97553.16;4875073;29;20045;-74
2022/08/22 07:14:13;;;;;;;26.00;8.88;;;;;;;39.60;40.97;97553.84;4872075;29;20044;-73
2022/08/22 07:17:09;;;;;;;24.48;9.40;;;;;;;38.91;40.62;97548.91;4872037;29;20587;-74
2022/08/22 07:20:04;;;;;;;28.40;10.10;;;;;;;39.18;43.81;97550.78;4884830;29;20061;-74
2022/08/22 07:22:40;;;;;;;30.42;9.65;;;;;;;39.35;40.93;97549.56;4873854;29;20049;-74
2022/08/22 07:25:36;;;;;;;23.13;8.27;;;;;;;39.23;41.00;97551.06;4873272;29;20053;-74
2022/08/22 07:28:30;;;;;;;24.27;8.52;;;;;;;39.22;41.55;97548.69;4873404;29;20060;-74
2022/08/22 07:31:55;;;;;;;27.80;8.82;;;;;;;39.40;40.36;97543.44;4873137;29;20053;-74
2022/08/22 07:34:50;;;;;;;29.08;8.20;;;;;;;38.99;40.36;97547.56;4858116;29;20214;-74
2022/08/22 07:37:45;;;;;;;17.05;8.55;;;;;;;39.26;41.49;97543.78;4872853;29;20132;-74
2022/08/22 07:40:33;;;;;;;27.33;8.80;;;;;;;38.70;40.00;97541.72;4868259;29;20125;-73
2022/08/22 07:43:31;;;;;;;27.08;8.50;;;;;;;38.79;40.42;97539.16;4854852;29;20064;-73
2022/08/22 07:46:21;;;;;;;22.75;8.27;;;;;;;38.71;42.25;97538.47;4881724;29;20136;-74
2022/08/22 07:49:20;;;;;;;22.38;9.85;;;;;;;38.56;44.22;97535.19;4897584;29;20044;-71
2022/08/22 07:52:16;;;;;;;23.95;9.80;;;;;;;38.64;45.99;97527.41;4892152;29;20135;-72
2022/08/22 07:55:17;;;;;;;22.77;9.15;;;;;;;38.00;42.65;97520.94;4901411;28;20112;-72
2022/08/22 07:58:12;;;;;;;25.63;10.98;;;;;;;38.28;42.99;97514.06;4899146;29;20063;-74
2022/08/22 08:01:01;;;;;;;29.40;11.48;;;;;;;38.61;42.63;97505.84;4892051;29;20108;-72
2022/08/22 08:03:44;;;;;;;;;;;;;;;39.12;41.56;97500.00;4877145;29;20055;-73
2022/08/22 08:06:34;;;;;;;26.92;10.70;;;;;;;38.86;42.05;97496.13;4891636;29;19966;-72
2022/08/22 08:09:25;;;;;;;25.45;9.10;;;;;;;38.46;42.87;97488.47;4891330;29;20102;-71
2022/08/22 08:12:11;;;;;;;21.77;9.00;;;;;;;38.51;43.87;97482.38;4892059;29;20056;-72
2022/08/22 08:15:00;;;;;;;;;;;;;;;38.16;44.00;97481.88;4891258;29;20064;-73
2022/08/22 08:17:44;;;;;;;30.17;10.75;;;;;;;37.87;46.73;97480.78;4891164;29;19983;-72
2022/08/22 08:20:34;;;;;;;27.85;10.57;;;;;;;38.13;44.54;97479.91;4890200;29;20132;-73
2022/08/22 08:23:18;;;;;;;28.20;12.23;;;;;;;37.93;42.67;97474.25;4890552;29;20048;-73
2022/08/22 08:26:14;;;;;;;30.73;14.00;;;;;;;38.25;44.32;97472.09;4890543;29;20061;-73
2022/08/22 08:29:10;;;;;;;29.50;12.27;;;;;;;38.28;45.60;97466.44;4872748;29;20049;-73
2022/08/22 08:31:46;;;;;;;31.45;14.50;;;;;;;38.08;41.94;97465.63;4882742;29;20048;-71
2022/08/22 08:34:42;;;;;;;;;;;;;;;38.26;46.79;97460.47;4891087;29;20052;-72
2022/08/22 08:37:40;;;;;;;32.92;13.20;;;;;;;38.47;44.48;97455.66;4855398;29;19984;-72
2022/08/22 08:40:31;;;;;;;24.67;11.75;;;;;;;38.00;42.55;97446.09;4872991;29;20108;-72
2022/08/22 08:43:26;;;;;;;32.30;11.18;;;;;;;38.35;43.65;97440.25;4881934;29;20076;-71
2022/08/22 08:46:37;;;;;;;27.92;11.77;;;;;;;38.70;45.93;97435.97;4890559;29;20068;-72
2022/08/22 08:49:57;;;;;;;20.35;9.95;;;;;;;38.45;43.10;97435.69;4891033;29;20140;-72
2022/08/22 08:53:00;;;;;;;23.95;11.48;;;;;;;38.55;43.31;97429.09;4891145;29;20140;-72
2022/08/22 08:56:04;;;;;;;24.92;12.05;;;;;;;38.46;44.06;97423.22;4893820;28;20072;-72
2022/08/22 08:59:26;;;;;;;31.50;11.52;;;;;;;38.35;43.04;97424.25;4891319;29;20096;-72
2022/08/22 09:02:49;;;;;;;26.15;11.40;;;;;;;38.32;42.21;97422.31;4889708;29;20346;-72
2022/08/22 09:05:37;;;;;;;24.83;11.55;;;;;;;38.70;43.92;97419.13;4892858;29;20067;-72
2022/08/22 09:08:53;;;;;;;28.05;13.20;;;;;;;38.92;42.00;97424.25;4890507;29;20088;-72
2022/08/22 09:12:15;;;;;;;29.27;12.18;;;;;;;38.89;42.21;97419.53;4889637;29;20507;-72
2022/08/22 09:15:35;;;;;;;26.20;13.27;;;;;;;38.55;41.15;97420.66;4890583;29;20553;-72
2022/08/22 09:19:28;;;;;;;26.65;12.60;;;;;;;38.44;44.70;97417.28;4890446;29;20339;-72
2022/08/22 09:22:41;;;;;;;23.95;11.52;;;;;;;38.54;44.48;97413.47;4889900;29;20040;-72
2022/08/22 09:25:49;;;;;;;23.10;11.45;;;;;;;38.10;42.38;97421.16;4890145;29;20080;-73
2022/08/22 09:28:52;;;;;;;31.80;12.85;;;;;;;38.12;43.58;97407.50;4890421;29;20123;-73
2022/08/22 09:31:52;;;;;;;30.23;11.85;;;;;;;38.19;44.49;97404.56;4889752;29;20052;-72
2022/08/22 09:34:53;;;;;;;23.83;11.52;;;;;;;38.14;46.14;97405.06;4889736;29;20045;-72
2022/08/22 09:37:46;;;;;;;30.73;13.52;;;;;;;38.07;46.29;97399.59;4890641;29;20064;-72
2022/08/22 09:40:59;;;;;;;28.60;12.48;;;;;;;38.14;45.32;97407.88;4890383;29;20098;-72
2022/08/22 09:43:49;;;;;;;26.40;10.23;;;;;;;37.96;46.25;97402.59;4890724;29;20052;-72
2022/08/22 09:46:56;;;;;;;35.85;15.77;;;;;;;37.70;45.97;97395.88;4889966;29;20056;-73
2022/08/22 09:49:32;;;;;;;32.38;15.20;;;;;;;37.45;46.94;97394.28;4889857;29;20804;-72
2022/08/22 09:52:38;;;;;;;33.92;17.00;;;;;;;37.53;47.97;97383.75;4891047;29;20333;-73
2022/08/22 09:55:50;;;;;;;37.70;16.75;;;;;;;37.54;48.51;97380.53;4881654;28;20091;-72
2022/08/22 09:59:05;;;;;;;39.92;19.88;;;;;;;37.53;48.84;97378.97;4892545;28;20062;-72
2022/08/22 10:02:35;;;;;;;36.40;17.95;;;;;;;37.33;47.90;97378.09;4890855;29;20052;-72
2022/08/22 10:06:23;;;;;;;36.03;18.20;;;;;;;37.14;48.95;97369.22;4888508;29;20048;-72
2022/08/22 10:09:24;;;;;;;42.97;17.83;;;;;;;37.14;48.97;97369.22;4890043;29;20040;-72
2022/08/22 10:12:52;;;;;;;46.28;19.25;;;;;;;36.78;48.58;97357.78;4873711;29;20045;-72
2022/08/22 10:16:25;;;;;;;47.40;19.60;;;;;;;36.75;49.18;97353.03;4890497;29;20045;-71
2022/08/22 10:19:37;;;;;;;34.53;17.73;;;;;;;36.80;48.25;97352.53;4875587;29;20150;-72
2022/08/22 10:22:56;;;;;;;32.30;17.85;;;;;;;36.59;48.49;97348.84;4889698;29;20053;-73
2022/08/22 10:26:34;;;;;;;31.42;16.38;;;;;;;36.47;48.26;97348.63;4878401;29;20064;-72
2022/08/22 10:30:07;;;;;;;37.67;15.40;;;;;;;36.49;47.98;97343.41;4890009;29;20064;-73
2022/08/22 10:33:45;;;;;;;28.65;13.85;;;;;;;36.53;50.44;97346.94;4878716;29;20044;-73
2022/08/22 10:36:54;;;;;;;42.13;15.30;;;;;;;35.64;58.96;97349.56;4873649;29;20064;-73
2022/08/22 10:40:38;;;;;;;31.13;16.05;;;;;;;34.97;62.98;97360.91;4882219;29;20136;-72
2022/08/22 10:44:04;;;;;;;39.85;17.85;;;;;;;34.32;64.41;97364.06;4891705;29;20048;-72
2022/08/22 10:47:11;;;;;;;49.10;20.52;;;;;;;33.60;69.22;97362.66;4862005;29;20552;-72
2022/08/22 10:50:14;;;;;;;35.65;20.48;;;;;;;33.12;72.08;97363.91;4879488;29;20060;-73
2022/08/22 10:53:32;;;;;;;41.65;20.42;;;;;;;32.94;71.95;97378.53;4881688;29;20151;-73
2022/08/22 10:56:54;;;;;;;43.83;22.25;;;;;;;32.26;73.87;97399.78;4894135;29;20353;-72
2022/08/22 11:00:21;;;;;;;43.20;23.80;;;;;;;31.41;74.45;97412.66;4880409;29;20135;-72
2022/08/22 11:03:31;;;;;;;40.30;26.98;;;;;;;31.15;74.23;97400.59;4874117;29;20045;-72
2022/08/22 11:06:50;;;;;;;40.28;27.10;;;;;;;31.03;74.96;97400.84;4874330;29;20048;-74
2022/08/22 11:09:53;;;;;;;45.20;26.40;;;;;;;31.83;75.50;97388.41;4857473;29;20056;-72
2022/08/22 11:12:48;;;;;;;40.40;26.70;;;;;;;31.45;76.62;97396.06;4874373;29;20421;-71
2022/08/22 11:15:42;;;;;;;41.63;27.77;;;;;;;31.33;76.21;97402.72;4909918;29;20426;-71
2022/08/22 11:19:01;;;;;;;41.22;27.92;;;;;;;31.05;75.44;97412.38;4911676;29;20374;-72
2022/08/22 11:22:18;;;;;;;38.47;26.70;;;;;;;30.81;76.63;97419.22;4887372;29;20132;-71
2022/08/22 11:25:24;;;;;;;44.28;28.27;;;;;;;30.77;77.58;97419.19;4892394;29;20113;-74
2022/08/22 11:28:53;;;;;;;44.17;29.55;;;;;;;30.59;77.67;97418.19;4892287;29;19939;-71
2022/08/22 11:32:16;;;;;;;39.45;28.90;;;;;;;30.39;77.93;97409.28;4892471;29;20472;-72
2022/08/22 11:35:14;;;;;;;;;;;;;;;30.32;78.44;97409.97;4892059;29;20116;-71
2022/08/22 11:38:35;;;;;;;37.95;29.88;;;;;;;30.26;78.38;97390.09;4892856;29;19930;-71
2022/08/22 11:41:30;;;;;;;39.53;29.73;;;;;;;30.13;76.92;97385.97;4892012;29;20056;-72
2022/08/22 11:45:07;;;;;;;37.40;28.50;;;;;;;30.38;77.15;97385.53;4892368;29;20582;-73
2022/08/22 11:48:24;;;;;;;44.53;30.20;;;;;;;30.30;77.82;97389.34;4892059;29;20045;-72
2022/08/22 11:51:25;;;;;;;40.15;30.75;;;;;;;30.48;78.03;97378.50;4890419;29;20049;-69
2022/08/22 11:54:27;;;;;;;40.17;31.90;;;;;;;30.70;79.16;97371.25;4902001;29;20075;-72
2022/08/22 11:57:22;;;;;;;43.78;32.80;;;;;;;30.34;79.12;97366.09;4905026;28;20053;-72
2022/08/22 12:00:26;;;;;;;38.78;31.55;;;;;;;30.58;77.81;97361.22;4876105;29;20628;-72
2022/08/22 12:03:22;;;;;;;41.47;32.25;;;;;;;30.61;78.25;97366.81;4885955;29;20045;-72
2022/08/22 12:06:48;;;;;;;43.78;32.25;;;;;;;30.82;77.83;97359.88;4892073;29;20084;-71
2022/08/22 12:09:34;;;;;;;44.63;29.67;;;;;;;31.08;76.31;97349.84;4875943;29;20123;-72
2022/08/22 12:12:31;;;;;;;42.25;30.92;;;;;;;31.37;75.58;97348.88;4875696;29;20083;-72
2022/08/22 12:15:11;;;;;;;35.88;29.55;;;;;;;31.44;76.98;97347.34;4892550;29;20072;-73
2022/08/22 12:18:31;;;;;;;39.33;31.52;;;;;;;31.70;76.28;97338.81;4892653;29;20052;-72
2022/08/22 12:21:21;;;;;;;42.95;31.85;;;;;;;31.88;78.49;97338.13;4891628;29;20064;-71
2022/08/22 12:24:28;;;;;;;39.78;31.25;;;;;;;31.96;77.09;97336.97;4891853;29;20111;-72
2022/08/22 12:27:25;;;;;;;35.30;29.38;;;;;;;31.97;75.36;97349.66;4891760;29;20044;-72
2022/08/22 12:30:45;;;;;;;39.15;30.80;;;;;;;32.00;76.66;97338.56;4875281;29;20044;-71
2022/08/22 12:33:46;;;;;;;38.83;29.95;;;;;;;32.02;77.51;97334.63;4891918;29;20072;-73
2022/08/22 12:36:55;;;;;;;42.17;30.05;;;;;;;32.02;75.95;97335.41;4891917;29;20773;-72
2022/08/22 12:40:01;;;;;;;40.50;30.13;;;;;;;32.02;77.53;97340.19;4876914;29;20518;-73
2022/08/22 12:43:37;;;;;;;35.15;31.25;;;;;;;32.16;76.58;97334.69;4891718;29;20164;-73
2022/08/22 12:46:42;;;;;;;37.17;29.95;;;;;;;32.24;77.13;97339.09;4833234;29;20057;-73
2022/08/22 12:49:37;;;;;;;41.50;31.67;;;;;;;32.22;75.93;97332.31;4891353;29;20184;-72
2022/08/22 12:52:56;;;;;;;40.90;30.90;;;;;;;32.29;76.92;97344.25;4891353;29;20045;-72
2022/08/22 12:55:47;;;;;;;;;;;;;;;32.41;75.95;97347.84;4891928;29;20380;-73
2022/08/22 12:59:11;;;;;;;40.17;31.05;;;;;;;32.49;76.51;97347.47;4892493;28;19987;-73
2022/08/22 13:02:11;;;;;;;37.67;30.50;;;;;;;32.55;76.17;97345.09;4891222;29;20051;-73
2022/08/22 13:05:07;;;;;;;43.53;33.05;;;;;;;32.55;76.62;97350.66;4891089;29;20063;-72
2022/08/22 13:07:57;;;;;;;40.85;30.92;;;;;;;32.53;75.03;97347.50;4881828;29;20048;-74
2022/08/22 13:11:06;;;;;;;39.05;29.98;;;;;;;32.49;75.24;97353.03;4871103;29;20065;-70
2022/08/22 13:14:00;;;;;;;46.05;29.83;;;;;;;32.49;76.21;97355.81;4881885;29;20048;-70
2022/08/22 13:17:01;;;;;;;38.55;29.85;;;;;;;32.64;75.60;97359.44;4881046;29;20069;-71
2022/08/22 13:20:11;;;;;;;40.65;28.48;;;;;;;32.69;75.54;97361.03;4875818;29;20561;-73
2022/08/22 13:23:01;;;;;;;35.92;27.75;;;;;;;32.70;74.17;97351.53;4882918;29;20053;-72
2022/08/22 13:26:14;;;;;;;44.90;29.67;;;;;;;32.72;75.86;97357.47;4864293;29;20040;-71
2022/08/22 13:29:42;;;;;;;45.28;33.13;;;;;;;32.66;75.54;97361.84;4881473;29;20372;-71
2022/08/22 13:32:30;;;;;;;;;;;;;;;32.61;74.01;97359.44;4880664;29;20116;-72
2022/08/22 13:35:55;;;;;;;43.65;29.95;;;;;;;32.52;74.59;97363.38;4880909;29;19998;-70
2022/08/22 13:39:00;;;;;;;43.53;29.27;;;;;;;32.56;76.01;97380.84;4843296;29;20056;-72
2022/08/22 13:41:55;;;;;;;;;;;;;;;32.66;75.91;97395.16;4861498;29;20119;-74
2022/08/22 13:44:42;;;;;;;40.75;30.13;;;;;;;32.57;77.00;97396.31;4880568;29;19959;-73
2022/08/22 13:47:32;;;;;;;40.58;30.25;;;;;;;32.50;76.33;97399.06;4862342;29;20065;-71
2022/08/22 13:50:22;;;;;;;37.88;32.53;;;;;;;32.54;77.46;97405.41;4871063;29;20052;-74
2022/08/22 13:54:03;;;;;;;46.08;32.92;;;;;;;32.62;76.45;97411.00;4871818;29;20064;-72
2022/08/22 13:57:09;;;;;;;44.75;33.88;;;;;;;32.65;78.00;97418.56;4856538;29;20050;-72
2022/08/22 14:00:24;;;;;;;42.90;32.65;;;;;;;32.59;77.70;97423.72;4872331;28;20053;-71
2022/08/22 14:03:05;;;;;;;46.05;32.83;;;;;;;32.55;77.14;97422.88;4871390;29;20045;-67
2022/08/22 14:05:58;;;;;;;45.17;32.00;;;;;;;32.53;78.09;97428.03;4871871;29;20128;-68
2022/08/22 14:09:17;;;;;;;42.50;32.63;;;;;;;32.48;77.08;97437.50;4890017;29;20059;-69
2022/08/22 14:12:35;;;;;;;42.88;32.55;;;;;;;32.48;77.31;97431.97;4860327;29;20048;-68
2022/08/22 14:15:37;;;;;;;44.72;32.17;;;;;;;32.44;78.20;97439.50;4893170;29;20052;-72
2022/08/22 14:18:30;;;;;;;46.65;33.53;;;;;;;32.40;77.25;97449.78;4889738;29;20557;-73
2022/08/22 14:21:48;;;;;;;51.70;34.05;;;;;;;32.22;77.48;97454.44;4890466;29;20041;-70
2022/08/22 14:24:39;;;;;;;44.75;33.90;;;;;;;32.29;77.54;97451.72;4862573;29;20045;-71